VBT weather

Bentonville Municipal-Louise M Thaden Field
Bentonville, Arkansas, United States

Public forecast

Using degrees Fahrenheit for public forecast. Weather courtesy of forecast.io.

METAR (pilot weather report)

Retrieved 2019/08/25 02:22 UTC (8 minutes ago):

KVBT 250222Z AUTO 09009KT 10SM BKN008 22/21 A3003 RMK AO2 PNO $

TAF (pilot weather forecast)

Forecast is more than 12 hours old.

Closest forecast is Rogers Municipal Airport-Carter Field, 5.7 nm (10.5 km) ENE. Retrieved 2019/08/24 00:22 UTC (1 day ago):

TAF KROG 242320Z 2500/2524 08010KT P6SM SCT025 BKN250 FM250600 11005KT P6SM OVC012 FM251100 14004KT P6SM VCTS OVC012CB TEMPO 2512/2516 4SM -TSRA OVC008CB FM251600 16006KT 4SM -TSRA OVC012CB